TFM - Tactical Decision Aid (Experimental) INFO Settings
ID: Runway Winds: CIG/VIS Threshold: METAR Board: Map:

Katl - Atlanta-Hartsfield Jackson Intl

Updated at: 1717 UTC 03 Jul 2015
Latest TAF at: 1551 UTC 03 Jul 2015

TAF Board

Time1652Z03/18Z03/19Z03/20Z03/21Z03/22Z03/23Z04/00Z04/01Z04/02Z04/03Z04/04Z04/05Z04/06Z
TypeOBSPRVLPRVLPRVLPRVLPRVLPRVLPRVLPRVLPRVLPRVLPRVLPRVLPRVL
VIS10>6>6>6>6>6>6>6>6>6>6>6>6>6
CIG200100120120120120120120303030303020
CoverBKNBKNBKNBKNBKNBKNBKNBKNBKNBKNBKNBKNBKNOVC
FltCatVFRVFRVFRVFRVFRVFRVFRVFRMVFRMVFRMVFRMVFRMVFRMVFR
WX---RA-------------SHRA-SHRA-SHRA-SHRA-SHRA--
WDir260260270270270270270270270270270270270260
WSpd710121212121212888889
WGst----181818181818------------
TAF
KATL 031551Z 0316/0418 26010KT P6SM -RA SCT030 BKN100
  FM031900 27012G18KT P6SM SCT045 BKN120
  FM040100 27008KT P6SM -SHRA BKN030 BKN080
  FM040600 26009KT P6SM OVC020
  FM041200 25008KT P6SM SCT030 BKN060


METAR
KATL 031652Z 26007KT 10SM FEW015 SCT100 BKN200 23/20 A3005 RMK AO2 RAE24 SLP166 P0000 T02330200
KATL 031552Z 28010KT 10SM -RA FEW030 BKN080 OVC100 22/20 A3007 RMK AO2 SLP172 CB DSNT SE-S-SW P0002 T02220200

TAF/METAR Board Legend

Potential Impact
  None Marginal Slight Moderate High
Visibility (sm) > ≤X≤ <
Ceiling (100 ft) > ≤X≤ <
Wind Speed (kt) <10 10≤X<20 20≤X<30 ≥30
Wind Gust (kt) <15 15≤X<25 25≤X<35 ≥35
Weather No Wx Reported VCTS -TS,-FZRA TS,FZRA +TS,+FZRA